Cleveland, Ohio
Traffic Map
Current Weather Conditions
Cleveland, Ohio
Clear
Clear

Feels Like: 5°
Wind Chill: Ceiling: Unl
Heat Index: Visibility: 10mi
Dew Point: Wind: 9mph
Humidity: 58% Direction: 40° (NE)
Pressure: 30.1in Gusts: 0mph
Raw Report DataKBKL 012053Z 04008KT 10SM CLR 08/00 A3010 RMK AO2 SLP195 T00780000 56017
Traffic Incident Summary
Active as of:
Severity:
Category:
InformationThere was an issue retrieving the traffic information for this location. Please try a different location or try again shortly.
Advertisements
Track Severe Weather on mobile